Airport View

Enter AWOS ICAO identifier for current METAR.

ex. KFNL

KOFP 080554Z AUTO 00000KT 6SM BR CLR 23/22 A3010 RMK AO2 SLP191 T02280217 10261 20228 58002

8 Aug 2020 06:39

Frequency: 119.025

Phone: 804-752-2902

Other Area AWOS: KRIC - KFCI - KW96 - K7W4

TAF KRIC 080520Z 0806/0906 VRB03KT P6SM BKN045 FM080900 VRB03KT P6SM BKN030 FM081500 VRB04KT P6SM SCT050 FM090400 00000KT P6SM SCT200